Latest Weather Observations for Canungra (Defence)
Issued at 9:13 pm EST Saturday 9 May 2026 (issued every 10 minutes, with the page automatically refreshed every 10 minutes)
| Station Details | ID: 140008 | Name: CANUNGRA (DEFENCE) | Lat: -28.04 | Lon: 153.19 | Height: 108.15 m |
| Date/Time EST |
Temp °C |
App Temp °C |
Dew Point °C |
Rel Hum % |
Delta-T °C |
Wind | Press QNH hPa |
Press MSL hPa |
Rain since 9am mm |
|||||
|---|---|---|---|---|---|---|---|---|---|---|---|---|---|---|
| Dir | Spd km/h |
Gust km/h |
Spd kts |
Gust kts |
||||||||||
| 09/09:00pm | 9.7 | 9.5 | 9.2 | 97 | 0.2 | CALM | 0 | 0 | 0 | 0 | - | - | 0.0 | |
| 09/08:30pm | 10.2 | 10.2 | 9.7 | 97 | 0.3 | CALM | 0 | 0 | 0 | 0 | - | - | 0.0 | |
| 09/08:00pm | 10.9 | 11.1 | 10.4 | 97 | 0.3 | CALM | 0 | 0 | 0 | 0 | - | - | 0.0 | |
| 09/07:30pm | 11.6 | 11.9 | 11.0 | 96 | 0.3 | CALM | 0 | 0 | 0 | 0 | - | - | 0.0 | |
| 09/07:00pm | 12.0 | 12.4 | 11.1 | 94 | 0.5 | CALM | 0 | 0 | 0 | 0 | - | - | 0.0 | |
| 09/06:30pm | 12.8 | 13.2 | 11.4 | 91 | 0.7 | CALM | 0 | 0 | 0 | 0 | - | - | 0.0 | |
| 09/06:00pm | 14.2 | 14.9 | 12.2 | 88 | 1.1 | CALM | 0 | 0 | 0 | 0 | - | - | 0.0 | |
| 09/05:30pm | 15.9 | 16.7 | 12.5 | 80 | 1.9 | CALM | 0 | 0 | 0 | 0 | - | - | 0.0 | |
| 09/05:00pm | 18.0 | 18.8 | 12.5 | 70 | 3.1 | CALM | 0 | 0 | 0 | 0 | - | - | 0.0 | |
| 09/04:30pm | 21.3 | 21.3 | 11.1 | 52 | 5.7 | SE | 2 | 6 | 1 | 3 | - | - | 0.0 | |
| 09/04:00pm | 22.1 | 21.7 | 11.2 | 50 | 6.1 | ESE | 4 | 9 | 2 | 5 | - | - | 0.0 | |
| 09/03:30pm | 22.6 | 21.6 | 10.4 | 46 | 6.7 | ENE | 6 | 13 | 3 | 7 | - | - | 0.0 | |
| 09/03:00pm | 22.8 | 22.0 | 10.9 | 47 | 6.6 | ENE | 6 | 13 | 3 | 7 | - | - | 0.0 | |
| 09/02:30pm | 23.1 | 22.0 | 9.8 | 43 | 7.3 | NNE | 6 | 15 | 3 | 8 | - | - | 0.0 | |
| 09/02:00pm | 23.4 | 22.3 | 9.8 | 42 | 7.4 | NNW | 6 | 9 | 3 | 5 | - | - | 0.0 | |
| 09/01:30pm | 23.6 | 22.8 | 11.0 | 45 | 7.1 | ESE | 6 | 11 | 3 | 6 | - | - | 0.0 | |
| 09/01:00pm | 23.1 | 22.0 | 9.8 | 43 | 7.3 | NNE | 6 | 11 | 3 | 6 | - | - | 0.0 | |
| 09/12:30pm | 21.6 | 20.6 | 11.0 | 51 | 5.9 | S | 7 | 13 | 4 | 7 | - | - | 0.0 | |
| 09/12:00pm | 21.6 | 20.6 | 10.4 | 49 | 6.1 | SSE | 6 | 15 | 3 | 8 | - | - | 0.0 | |
| 09/11:30am | 21.6 | 20.8 | 11.6 | 53 | 5.6 | S | 7 | 15 | 4 | 8 | - | - | 0.0 | |
| 09/11:00am | 21.8 | 20.5 | 10.0 | 47 | 6.4 | SSE | 7 | 13 | 4 | 7 | - | - | 0.0 | |
| 09/10:30am | 21.7 | 20.8 | 10.5 | 49 | 6.2 | SSE | 6 | 11 | 3 | 6 | - | - | 0.0 | |
| 09/10:00am | 19.6 | 19.5 | 10.9 | 57 | 4.8 | N | 2 | 4 | 1 | 2 | - | - | 0.0 | |
| 09/09:30am | 18.9 | 20.2 | 14.0 | 73 | 2.8 | CALM | 0 | 2 | 0 | 1 | - | - | 0.0 | |
| 09/09:27am | 18.7 | 20.0 | 14.0 | 74 | 2.7 | CALM | 0 | 0 | 0 | 0 | - | - | 0.0 | |
| 09/09:00am | 13.6 | 14.7 | 13.6 | 100 | 0.0 | CALM | 0 | 0 | 0 | 0 | - | - | 0.0 | |
| 09/08:30am | 11.1 | 11.5 | 11.1 | 100 | 0.0 | CALM | 0 | 0 | 0 | 0 | - | - | 0.0 | |
| 09/08:00am | 8.2 | 7.8 | 8.2 | 100 | 0.0 | CALM | 0 | 0 | 0 | 0 | - | - | 0.0 | |
| 09/07:30am | 6.3 | 5.5 | 6.3 | 100 | 0.0 | CALM | 0 | 0 | 0 | 0 | - | - | 0.0 | |
| 09/07:00am | 4.8 | 3.6 | 4.8 | 100 | 0.0 | CALM | 0 | 0 | 0 | 0 | - | - | 0.0 | |
| 09/06:30am | 4.3 | 3.0 | 4.3 | 100 | 0.0 | CALM | 0 | 0 | 0 | 0 | - | - | 0.0 | |
| 09/06:00am | 4.5 | 3.3 | 4.5 | 100 | 0.0 | CALM | 0 | 0 | 0 | 0 | - | - | 0.0 | |
| 09/05:30am | 4.3 | 3.0 | 4.2 | 99 | 0.0 | CALM | 0 | 0 | 0 | 0 | - | - | 0.0 | |
| 09/05:00am | 4.4 | 3.1 | 4.3 | 99 | 0.0 | CALM | 0 | 0 | 0 | 0 | - | - | 0.0 | |
| 09/04:30am | 4.4 | 3.1 | 4.3 | 99 | 0.0 | CALM | 0 | 0 | 0 | 0 | - | - | 0.0 | |
| 09/04:00am | 4.3 | 3.0 | 4.2 | 99 | 0.0 | CALM | 0 | 0 | 0 | 0 | - | - | 0.0 | |
| 09/03:30am | 4.2 | 2.9 | 4.1 | 99 | 0.0 | CALM | 0 | 0 | 0 | 0 | - | - | 0.0 | |
| 09/03:00am | 4.1 | 2.8 | 4.0 | 99 | 0.0 | CALM | 0 | 0 | 0 | 0 | - | - | 0.0 | |
| 09/02:30am | 4.2 | 2.9 | 4.1 | 99 | 0.0 | CALM | 0 | 0 | 0 | 0 | - | - | 0.0 | |
| 09/02:00am | 3.9 | 2.5 | 3.8 | 99 | 0.0 | CALM | 0 | 0 | 0 | 0 | - | - | 0.0 | |
| 09/01:30am | 4.1 | 2.8 | 4.0 | 99 | 0.0 | CALM | 0 | 0 | 0 | 0 | - | - | 0.0 | |
| 09/01:00am | 4.6 | 3.4 | 4.5 | 99 | 0.0 | CALM | 0 | 0 | 0 | 0 | - | - | 0.0 | |
| 09/12:30am | 4.6 | 3.4 | 4.5 | 99 | 0.0 | CALM | 0 | 0 | 0 | 0 | - | - | 0.0 | |
| 09/12:00am | 4.9 | 3.7 | 4.6 | 98 | 0.1 | CALM | 0 | 0 | 0 | 0 | - | - | 0.0 | |
| Date/Time EST |
Temp °C |
App Temp °C |
Dew Point °C |
Rel Hum % |
Delta-T °C |
Wind | Press QNH hPa |
Press MSL hPa |
Rain since 9am mm |
|||||
|---|---|---|---|---|---|---|---|---|---|---|---|---|---|---|
| Dir | Spd km/h |
Gust km/h |
Spd kts |
Gust kts |
||||||||||
| 08/11:30pm | 4.8 | 3.6 | 4.5 | 98 | 0.1 | CALM | 0 | 0 | 0 | 0 | - | - | 0.0 | |
| 08/11:00pm | 5.5 | 4.4 | 5.2 | 98 | 0.1 | CALM | 0 | 0 | 0 | 0 | - | - | 0.0 | |
| 08/10:30pm | 5.4 | 4.3 | 5.0 | 97 | 0.2 | CALM | 0 | 0 | 0 | 0 | - | - | 0.0 | |
| 08/10:00pm | 6.0 | 5.0 | 5.6 | 97 | 0.2 | CALM | 0 | 0 | 0 | 0 | - | - | 0.0 | |
| 08/09:30pm | 5.9 | 4.8 | 5.3 | 96 | 0.3 | CALM | 0 | 0 | 0 | 0 | - | - | 0.0 | |
| 08/09:00pm | 6.9 | 6.1 | 6.3 | 96 | 0.3 | CALM | 0 | 0 | 0 | 0 | - | - | 0.0 | |
| 08/08:30pm | 7.4 | 6.6 | 6.7 | 95 | 0.3 | CALM | 0 | 0 | 0 | 0 | - | - | 0.0 | |
| 08/08:00pm | 7.8 | 7.0 | 6.7 | 93 | 0.5 | CALM | 0 | 0 | 0 | 0 | - | - | 0.0 | |
| 08/07:30pm | 8.2 | 7.5 | 6.8 | 91 | 0.7 | CALM | 0 | 0 | 0 | 0 | - | - | 0.0 | |
| 08/07:00pm | 8.8 | 8.1 | 7.1 | 89 | 0.8 | CALM | 0 | 0 | 0 | 0 | - | - | 0.0 | |
| 08/06:30pm | 9.4 | 8.8 | 7.2 | 86 | 1.0 | CALM | 0 | 0 | 0 | 0 | - | - | 0.0 | |
| 08/06:00pm | 10.6 | 10.0 | 7.5 | 81 | 1.5 | CALM | 0 | 0 | 0 | 0 | - | - | 0.0 | |
| 08/05:30pm | 12.8 | 12.4 | 8.3 | 74 | 2.2 | CALM | 0 | 0 | 0 | 0 | - | - | 0.0 | |
| 08/05:00pm | 16.0 | 15.8 | 9.2 | 64 | 3.5 | CALM | 0 | 0 | 0 | 0 | - | - | 0.0 | |
| 08/04:30pm | 20.1 | 20.1 | 9.7 | 51 | 5.6 | CALM | 0 | 0 | 0 | 0 | - | - | 0.0 | |
| 08/04:00pm | 22.1 | 20.0 | 3.7 | 30 | 8.9 | NNW | 4 | 6 | 2 | 3 | - | - | 0.0 | |
| 08/03:30pm | 21.9 | 19.1 | 2.1 | 27 | 9.3 | N | 6 | 11 | 3 | 6 | - | - | 0.0 | |
| 08/03:00pm | 22.8 | 19.6 | -0.6 | 21 | 10.5 | N | 6 | 13 | 3 | 7 | - | - | 0.0 | |
| 08/02:30pm | 22.9 | 19.7 | -0.6 | 21 | 10.6 | N | 6 | 11 | 3 | 6 | - | - | 0.0 | |
| 08/02:00pm | 22.8 | 19.8 | -2.0 | 19 | 10.8 | N | 4 | 9 | 2 | 5 | - | - | 0.0 | |
| 08/01:30pm | 22.4 | 19.1 | -1.6 | 20 | 10.5 | W | 6 | 13 | 3 | 7 | - | - | 0.0 | |
| 08/01:00pm | 22.1 | 19.4 | 0.6 | 24 | 9.8 | NNE | 4 | 9 | 2 | 5 | - | - | 0.0 | |
| 08/12:30pm | 21.1 | 18.4 | 2.9 | 30 | 8.6 | N | 6 | 11 | 3 | 6 | - | - | 0.0 | |
| 08/12:00pm | 20.0 | 17.2 | 1.9 | 30 | 8.3 | NNE | 6 | 9 | 3 | 5 | - | - | 0.0 | |
| 08/11:30am | 19.6 | 17.1 | 3.7 | 35 | 7.6 | NNE | 6 | 9 | 3 | 5 | - | - | 0.0 | |
| 08/11:00am | 18.7 | 16.0 | 2.9 | 35 | 7.4 | NE | 6 | 9 | 3 | 5 | - | - | 0.0 | |
| 08/10:30am | 17.9 | 15.3 | 3.0 | 37 | 6.9 | ENE | 6 | 9 | 3 | 5 | - | - | 0.0 | |
| 08/10:00am | 16.9 | 14.6 | 2.9 | 39 | 6.4 | NE | 4 | 7 | 2 | 4 | - | - | 0.0 | |
| 08/09:30am | 16.0 | 13.6 | 2.1 | 39 | 6.2 | N | 4 | 7 | 2 | 4 | - | - | 0.0 | |
| 08/09:00am | 14.8 | 13.9 | 7.6 | 62 | 3.6 | NNE | 2 | 4 | 1 | 2 | - | - | 0.0 | |
| 08/08:30am | 12.7 | 12.4 | 8.6 | 76 | 2.1 | CALM | 0 | 0 | 0 | 0 | - | - | 0.0 | |
| 08/08:00am | 9.2 | 9.0 | 9.2 | 100 | 0.0 | CALM | 0 | 0 | 0 | 0 | - | - | 0.0 | |
| 08/07:30am | 6.2 | 5.3 | 6.1 | 99 | 0.0 | CALM | 0 | 0 | 0 | 0 | - | - | 0.0 | |
| 08/07:00am | 5.3 | 4.2 | 5.2 | 99 | 0.0 | CALM | 0 | 0 | 0 | 0 | - | - | 0.0 | |
| 08/06:30am | 5.5 | 4.4 | 5.2 | 98 | 0.1 | CALM | 0 | 0 | 0 | 0 | - | - | 0.0 | |
| 08/06:00am | 5.7 | 4.7 | 5.4 | 98 | 0.1 | CALM | 0 | 0 | 0 | 0 | - | - | 0.0 | |
| 08/05:30am | 5.8 | 4.8 | 5.5 | 98 | 0.1 | CALM | 0 | 0 | 0 | 0 | - | - | 0.0 | |
| 08/05:00am | 6.4 | 5.5 | 6.0 | 97 | 0.2 | CALM | 0 | 0 | 0 | 0 | - | - | 0.0 | |
| 08/04:30am | 6.7 | 5.8 | 6.1 | 96 | 0.3 | CALM | 0 | 0 | 0 | 0 | - | - | 0.0 | |
| 08/04:00am | 7.4 | 6.7 | 6.8 | 96 | 0.3 | CALM | 0 | 0 | 0 | 0 | - | - | 0.0 | |
| 08/03:30am | 7.5 | 6.7 | 6.4 | 93 | 0.5 | CALM | 0 | 0 | 0 | 0 | - | - | 0.0 | |
| 08/03:00am | 8.3 | 7.6 | 6.9 | 91 | 0.7 | CALM | 0 | 0 | 0 | 0 | - | - | 0.0 | |
| 08/02:30am | 9.2 | 8.2 | 7.3 | 88 | 0.9 | NNE | 2 | 6 | 1 | 3 | - | - | 0.0 | |
| 08/02:00am | 9.5 | 8.9 | 7.3 | 86 | 1.0 | CALM | 0 | 4 | 0 | 2 | - | - | 0.0 | |
| 08/01:30am | 10.1 | 9.2 | 7.7 | 85 | 1.2 | S | 2 | 6 | 1 | 3 | - | - | 0.0 | |
| 08/01:00am | 10.9 | 10.2 | 7.0 | 77 | 1.9 | CALM | 0 | 0 | 0 | 0 | - | - | 0.0 | |
| 08/12:30am | 11.2 | 10.6 | 7.5 | 78 | 1.8 | CALM | 0 | 6 | 0 | 3 | - | - | 0.0 | |
| 08/12:00am | 11.9 | 10.8 | 7.0 | 72 | 2.4 | NNW | 2 | 6 | 1 | 3 | - | - | 0.0 | |
| Date/Time EST |
Temp °C |
App Temp °C |
Dew Point °C |
Rel Hum % |
Delta-T °C |
Wind | Press QNH hPa |
Press MSL hPa |
Rain since 9am mm |
|||||
|---|---|---|---|---|---|---|---|---|---|---|---|---|---|---|
| Dir | Spd km/h |
Gust km/h |
Spd kts |
Gust kts |
||||||||||
| 07/11:30pm | 13.2 | 11.8 | 7.2 | 67 | 2.9 | ESE | 4 | 6 | 2 | 3 | - | - | 0.0 | |
| 07/11:00pm | 16.3 | 14.0 | 5.9 | 50 | 5.1 | W | 7 | 13 | 4 | 7 | - | - | 0.0 | |
| 07/10:30pm | 17.1 | 14.8 | 5.7 | 47 | 5.6 | SW | 7 | 15 | 4 | 8 | - | - | 0.0 | |
| 07/10:00pm | 17.0 | 15.4 | 6.2 | 49 | 5.3 | SW | 4 | 9 | 2 | 5 | - | - | 0.0 | |
| 07/09:30pm | 16.2 | 15.0 | 8.2 | 59 | 4.1 | WSW | 4 | 7 | 2 | 4 | - | - | 0.0 | |
| 07/09:00pm | 17.4 | 15.7 | 5.7 | 46 | 5.7 | WNW | 4 | 9 | 2 | 5 | - | - | 0.0 | |
| 07/08:30pm | 18.4 | 16.0 | 4.2 | 39 | 6.8 | NW | 6 | 11 | 3 | 6 | - | - | 0.0 | |
| 07/08:00pm | 16.5 | 16.2 | 8.5 | 59 | 4.1 | CALM | 0 | 6 | 0 | 3 | - | - | 0.0 | |
| 07/07:30pm | 18.8 | 16.8 | 4.6 | 39 | 6.8 | WSW | 4 | 9 | 2 | 5 | - | - | 0.0 | |
| 07/07:00pm | 19.9 | 18.6 | 7.6 | 45 | 6.3 | SSW | 4 | 11 | 2 | 6 | - | - | 0.0 | |
| 07/06:30pm | 20.8 | 18.7 | 5.6 | 37 | 7.6 | SSW | 6 | 15 | 3 | 8 | - | - | 0.0 | |
| 07/06:00pm | 21.7 | 18.9 | 5.2 | 34 | 8.2 | NW | 9 | 15 | 5 | 8 | - | - | 0.0 | |
| 07/05:30pm | 22.6 | 19.4 | 5.1 | 32 | 8.7 | NW | 11 | 24 | 6 | 13 | - | - | 0.0 | |
| 07/05:00pm | 23.3 | 20.5 | 5.2 | 31 | 9.1 | WNW | 9 | 22 | 5 | 12 | - | - | 0.0 | |
| 07/04:30pm | 23.3 | 21.3 | 6.1 | 33 | 8.8 | SW | 6 | 19 | 3 | 10 | - | - | 0.0 | |
| 07/04:00pm | 23.3 | 23.1 | 11.7 | 48 | 6.6 | S | 4 | 9 | 2 | 5 | - | - | 0.0 | |
| 07/03:30pm | 24.4 | 22.6 | 8.0 | 35 | 8.7 | SSW | 7 | 20 | 4 | 11 | - | - | 0.0 | |
| 07/03:00pm | 25.1 | 24.4 | 10.2 | 39 | 8.3 | SSW | 4 | 13 | 2 | 7 | - | - | 0.0 | |
| 07/02:30pm | 25.9 | 25.0 | 10.5 | 38 | 8.6 | WSW | 6 | 15 | 3 | 8 | - | - | 0.0 | |
| 07/02:00pm | 25.4 | 24.3 | 10.8 | 40 | 8.2 | SW | 7 | 11 | 4 | 6 | - | - | 0.0 | |
| 07/01:30pm | 26.3 | 26.2 | 13.4 | 45 | 7.6 | WNW | 6 | 15 | 3 | 8 | - | - | 0.0 | |
| 07/01:00pm | 25.8 | 26.5 | 16.1 | 55 | 6.0 | WNW | 7 | 15 | 4 | 8 | - | - | 0.0 | |
| 07/12:30pm | 26.0 | 27.7 | 18.4 | 63 | 4.8 | NNW | 7 | 13 | 4 | 7 | - | - | 0.0 | |
| 07/12:00pm | 25.8 | 27.2 | 17.4 | 59 | 5.3 | NW | 6 | 15 | 3 | 8 | - | - | 0.0 | |
| 07/11:30am | 24.6 | 26.1 | 18.1 | 67 | 4.1 | NNW | 7 | 15 | 4 | 8 | - | - | 0.0 | |
| 07/11:00am | 23.4 | 24.4 | 17.8 | 71 | 3.5 | NW | 9 | 15 | 5 | 8 | - | - | 0.0 | |
| 07/10:30am | 22.8 | 24.4 | 18.3 | 76 | 2.8 | NW | 7 | 15 | 4 | 8 | - | - | 0.0 | |
| 07/10:00am | 21.3 | 22.9 | 18.3 | 83 | 1.9 | NNW | 7 | 11 | 4 | 6 | - | - | 0.0 | |
| 07/09:30am | 20.4 | 23.1 | 19.4 | 94 | 0.6 | NNE | 4 | 6 | 2 | 3 | - | - | 0.0 | |
| 07/09:00am | 18.0 | 20.8 | 18.0 | 100 | 0.0 | CALM | 0 | 0 | 0 | 0 | - | - | 0.8 | |
| 07/08:30am | 16.9 | 19.3 | 16.9 | 100 | 0.0 | CALM | 0 | 0 | 0 | 0 | - | - | 0.8 | |
| 07/08:00am | 15.9 | 17.9 | 15.9 | 100 | 0.0 | CALM | 0 | 0 | 0 | 0 | - | - | 0.8 | |
| 07/07:30am | 14.8 | 16.4 | 14.8 | 100 | 0.0 | CALM | 0 | 0 | 0 | 0 | - | - | 0.8 | |
| 07/07:00am | 13.9 | 15.1 | 13.9 | 100 | 0.0 | CALM | 0 | 0 | 0 | 0 | - | - | 0.8 | |
| 07/06:30am | 14.0 | 15.3 | 14.0 | 100 | 0.0 | CALM | 0 | 0 | 0 | 0 | - | - | 0.8 | |
| 07/06:00am | 13.9 | 15.1 | 13.9 | 100 | 0.0 | CALM | 0 | 0 | 0 | 0 | - | - | 0.8 | |
| 07/05:30am | 13.9 | 15.1 | 13.9 | 100 | 0.0 | CALM | 0 | 0 | 0 | 0 | - | - | 0.8 | |
| 07/05:00am | 14.1 | 15.4 | 14.1 | 100 | 0.0 | CALM | 0 | 0 | 0 | 0 | - | - | 0.8 | |
| 07/04:30am | 14.2 | 15.5 | 14.2 | 100 | 0.0 | CALM | 0 | 2 | 0 | 1 | - | - | 0.8 | |
| 07/04:00am | 14.5 | 15.9 | 14.3 | 99 | 0.1 | CALM | 0 | 0 | 0 | 0 | - | - | 0.8 | |
| 07/03:30am | 14.8 | 16.3 | 14.6 | 99 | 0.1 | CALM | 0 | 0 | 0 | 0 | - | - | 0.8 | |
| 07/03:00am | 15.1 | 16.8 | 15.1 | 100 | 0.0 | CALM | 0 | 0 | 0 | 0 | - | - | 0.8 | |
| 07/02:30am | 15.1 | 16.8 | 15.1 | 100 | 0.0 | CALM | 0 | 0 | 0 | 0 | - | - | 0.8 | |
| 07/02:00am | 15.1 | 16.8 | 15.1 | 100 | 0.0 | CALM | 0 | 4 | 0 | 2 | - | - | 0.8 | |
| 07/01:30am | 14.6 | 16.0 | 14.4 | 99 | 0.1 | CALM | 0 | 0 | 0 | 0 | - | - | 0.8 | |
| 07/01:00am | 14.8 | 16.3 | 14.6 | 99 | 0.1 | CALM | 0 | 0 | 0 | 0 | - | - | 0.8 | |
| 07/12:30am | 14.9 | 16.4 | 14.7 | 99 | 0.1 | CALM | 0 | 0 | 0 | 0 | - | - | 0.8 | |
| 07/12:00am | 15.1 | 16.7 | 14.9 | 99 | 0.1 | CALM | 0 | 0 | 0 | 0 | - | - | 0.8 | |
| Date/Time EST |
Temp °C |
App Temp °C |
Dew Point °C |
Rel Hum % |
Delta-T °C |
Wind | Press QNH hPa |
Press MSL hPa |
Rain since 9am mm |
||||
|---|---|---|---|---|---|---|---|---|---|---|---|---|---|
| Dir | Spd km/h |
Gust km/h |
Spd kts |
Gust kts |
|||||||||
| 06/11:30pm | 14.8 | 16.3 | 14.6 | 99 | 0.1 | CALM | 0 | 0 | 0 | 0 | - | - | 0.8 |
| 06/11:00pm | 15.3 | 17.0 | 15.1 | 99 | 0.1 | CALM | 0 | 0 | 0 | 0 | - | - | 0.8 |
| 06/10:30pm | 15.5 | 17.2 | 15.3 | 99 | 0.1 | CALM | 0 | 0 | 0 | 0 | - | - | 0.8 |
| 06/10:00pm | 15.5 | 17.2 | 15.3 | 99 | 0.1 | CALM | 0 | 0 | 0 | 0 | - | - | 0.8 |
| 06/09:30pm | 15.7 | 17.5 | 15.4 | 98 | 0.2 | CALM | 0 | 0 | 0 | 0 | - | - | 0.8 |
Other formats
Comma delimited format used in spreadsheet applications
http://www.bom.gov.au/fwo/IDQ60801/IDQ60801.94418.axf
JavaScript Object Notation format (JSON) in row-major order
http://www.bom.gov.au/fwo/IDQ60801/IDQ60801.94418.json
Data quality
Most of these data are generated automatically and are frequently updated. Quality checks on data are not normally performed. It is possible for incorrect values to appear. Refer to information at About Latest Weather Observations and please check the disclaimer before using these data.
